< < Back
Terminal Aerodrome Forecast


Current Version              Previous Versions:   1  2  3  4  5  6  7  8  9  

Terminal Aerodrome Forecast

480
FTUS42 KMLB 220500
TAFDAB
TAF
KDAB 220533Z 2206/2306 VRB03KT 6SM -RA BR FEW025 OVC050
      TEMPO 2206/2210 2SM RA BR BKN025 OVC035
     FM221000 VRB03KT 6SM -RA BR SCT006 OVC025
      TEMPO 2210/2213 2SM -RA BR OVC006
     FM221600 19008KT P6SM VCSH SCT020 BKN050 BKN100=

Latest METAR

081
SAUS80 KWBC 221900 RRG
MTRDAB
METAR KDAB 221853Z 17007G15KT 10SM FEW025 FEW055 SCT150 BKN250 24/19
A2993 RMK AO2 SLP133 T02440189


USA.gov is the U.S. government's official web portal to all federal, state and local government web resources and services.